createdAt,value
2022-10-05T00:04:47.945Z,35.50
2022-10-05T00:07:16.840Z,48.28
2022-10-05T00:09:45.589Z,40.25
2022-10-05T00:15:22.982Z,36.35
2022-10-05T00:17:50.140Z,44.08
2022-10-05T00:20:27.070Z,43.05
2022-10-05T00:22:58.701Z,33.45
2022-10-05T00:25:26.092Z,35.03
2022-10-05T00:28:00.731Z,34.40
2022-10-05T00:30:34.685Z,50.65
2022-10-05T00:33:01.715Z,41.08
2022-10-05T00:35:30.741Z,40.60
2022-10-05T00:37:57.845Z,42.85
2022-10-05T00:40:36.913Z,40.22
2022-10-05T00:43:06.731Z,42.25
2022-10-05T00:45:36.488Z,45.60
2022-10-05T00:48:03.564Z,45.47
2022-10-05T00:50:39.726Z,44.55
2022-10-05T00:53:12.880Z,46.42
2022-10-05T00:55:58.532Z,39.63
2022-10-05T00:58:40.983Z,53.53
2022-10-05T01:01:28.447Z,57.50
2022-10-05T01:04:14.442Z,52.75
2022-10-05T01:06:50.732Z,44.72
2022-10-05T01:09:37.688Z,54.85
2022-10-05T01:12:07.789Z,57.20
2022-10-05T01:14:47.165Z,43.30
2022-10-05T01:17:20.406Z,40.83
2022-10-05T01:19:47.468Z,34.95
2022-10-05T01:22:14.492Z,40.80
2022-10-05T01:24:50.632Z,44.72
2022-10-05T01:27:35.962Z,34.63
2022-10-05T01:30:17.472Z,32.83
2022-10-05T01:32:49.186Z,32.90
2022-10-05T01:35:26.814Z,31.13
2022-10-05T01:37:53.823Z,38.10
2022-10-05T01:40:23.872Z,35.00
2022-10-05T01:42:56.779Z,40.13
2022-10-05T01:45:28.315Z,42.88
2022-10-05T01:48:01.283Z,35.45
2022-10-05T01:50:28.379Z,31.88
2022-10-05T01:53:04.606Z,36.65
2022-10-05T01:55:50.583Z,30.75
2022-10-05T01:58:29.013Z,29.05
2022-10-05T02:01:01.503Z,30.30
2022-10-05T02:06:05.061Z,34.78
2022-10-05T02:08:38.387Z,28.67
2022-10-05T02:11:09.422Z,40.35
2022-10-05T02:13:41.298Z,41.58
2022-10-05T02:16:10.921Z,32.80
2022-10-05T02:18:44.694Z,33.85
2022-10-05T02:21:11.755Z,34.65
2022-10-05T02:23:40.252Z,40.05
2022-10-05T02:26:07.820Z,39.92
2022-10-05T02:29:10.313Z,42.80
2022-10-05T02:31:43.803Z,33.92
2022-10-05T02:34:20.913Z,39.53
2022-10-05T02:36:50.109Z,36.28
2022-10-05T02:39:21.561Z,38.38
2022-10-05T02:41:54.198Z,33.28
2022-10-05T02:46:57.243Z,79.05
2022-10-05T02:49:51.251Z,66.22
2022-10-05T02:52:38.752Z,63.63
2022-10-05T02:55:13.689Z,57.05
2022-10-05T02:57:47.121Z,66.60
2022-10-05T03:00:15.922Z,41.90
2022-10-05T03:02:52.370Z,46.67
2022-10-05T03:05:32.460Z,43.53
2022-10-05T03:08:02.444Z,42.10
2022-10-05T03:10:55.934Z,54.33
2022-10-05T03:13:38.236Z,40.22
2022-10-05T03:16:20.544Z,46.35
2022-10-05T03:19:06.245Z,66.00
2022-10-05T03:21:48.590Z,78.10
2022-10-05T03:24:24.979Z,89.30
2022-10-05T03:27:01.374Z,80.25
2022-10-05T03:29:34.418Z,72.10
2022-10-05T03:32:08.711Z,66.47
2022-10-05T03:34:45.316Z,65.20
2022-10-05T03:37:18.651Z,71.93
2022-10-05T03:39:50.439Z,58.97
2022-10-05T03:42:20.561Z,56.25
2022-10-05T03:44:56.968Z,56.78
2022-10-05T03:47:33.226Z,55.45
2022-10-05T03:50:10.125Z,50.67
2022-10-05T03:52:39.614Z,55.67
2022-10-05T03:55:06.907Z,52.00
2022-10-05T03:57:35.759Z,51.55
2022-10-05T04:00:05.799Z,59.47
2022-10-05T04:02:32.889Z,68.93
2022-10-05T04:05:03.230Z,51.17
2022-10-05T04:07:49.186Z,53.20
2022-10-05T04:10:42.591Z,66.38
2022-10-05T04:13:15.690Z,52.90
2022-10-05T04:16:01.552Z,60.97
2022-10-05T04:18:31.808Z,46.30
2022-10-05T04:21:02.108Z,60.22
2022-10-05T04:23:34.874Z,109.88
2022-10-05T04:26:05.027Z,99.47
2022-10-05T04:28:51.319Z,82.20
2022-10-05T04:31:27.665Z,37.85
2022-10-05T04:34:00.361Z,53.72
2022-10-05T04:39:03.656Z,101.85
2022-10-05T04:41:49.682Z,46.42
2022-10-05T04:44:32.052Z,88.30
2022-10-05T04:47:11.425Z,167.90
2022-10-05T04:49:41.538Z,79.15
2022-10-05T04:52:11.864Z,101.57
2022-10-05T04:54:38.923Z,45.35
2022-10-05T04:57:13.293Z,118.22
2022-10-05T04:59:58.703Z,56.17
2022-10-05T05:02:40.763Z,105.28
2022-10-05T05:05:23.403Z,83.07
2022-10-05T05:07:56.110Z,204.95
2022-10-05T05:13:18.646Z,61.95
2022-10-05T05:15:46.969Z,41.13
2022-10-05T05:18:46.288Z,39.60
2022-10-05T05:21:25.536Z,47.00
2022-10-05T05:24:01.827Z,56.17
2022-10-05T05:26:42.498Z,62.00
2022-10-05T05:29:09.591Z,35.22
2022-10-05T05:31:36.696Z,41.47
2022-10-05T05:34:09.972Z,54.60
2022-10-05T05:36:46.610Z,38.33
2022-10-05T05:39:21.793Z,56.15
2022-10-05T05:42:07.738Z,34.88
2022-10-05T05:44:43.080Z,33.35
2022-10-05T05:47:19.781Z,104.53
2022-10-05T05:49:49.852Z,39.28
2022-10-05T05:52:19.781Z,33.47
2022-10-05T05:55:01.741Z,38.17
2022-10-05T05:57:49.988Z,38.73
2022-10-05T06:00:21.101Z,47.92
2022-10-05T06:02:52.286Z,172.38
2022-10-05T06:05:28.622Z,36.67
2022-10-05T06:07:56.542Z,46.42
2022-10-05T06:10:35.852Z,46.10
2022-10-05T06:13:07.168Z,37.90
2022-10-05T06:15:54.135Z,34.25
2022-10-05T06:18:22.468Z,89.13
2022-10-05T06:21:00.228Z,85.82
2022-10-05T06:23:30.387Z,36.28
2022-10-05T06:26:15.661Z,63.72
2022-10-05T06:28:43.240Z,74.80
2022-10-05T06:31:19.704Z,81.55
2022-10-05T06:33:51.544Z,64.90
2022-10-05T06:36:21.667Z,149.60
2022-10-05T06:38:49.471Z,107.03
2022-10-05T06:41:33.110Z,48.63
2022-10-05T06:44:07.692Z,87.15
2022-10-05T06:46:34.728Z,54.63
2022-10-05T06:49:04.645Z,63.40
2022-10-05T06:51:34.698Z,102.03
2022-10-05T06:54:26.447Z,53.75
2022-10-05T06:57:13.181Z,66.85
2022-10-05T06:59:54.025Z,54.10
2022-10-05T07:02:35.385Z,60.72
2022-10-05T07:05:11.556Z,51.22
2022-10-05T07:08:04.972Z,80.97
2022-10-05T07:10:34.147Z,57.40
2022-10-05T07:13:07.337Z,66.55
2022-10-05T07:15:46.505Z,48.67
2022-10-05T07:18:19.739Z,55.83
2022-10-05T07:21:05.234Z,64.47
2022-10-05T07:23:50.851Z,78.57
2022-10-05T07:26:36.754Z,98.00
2022-10-05T07:29:10.680Z,58.42
2022-10-05T07:31:50.524Z,79.47
2022-10-05T07:34:20.787Z,42.42
2022-10-05T07:37:06.475Z,60.45
2022-10-05T07:39:59.092Z,46.65
2022-10-05T07:42:48.827Z,53.55
2022-10-05T07:45:18.018Z,63.50
2022-10-05T07:47:50.968Z,45.00
2022-10-05T07:50:21.118Z,44.60
2022-10-05T07:52:55.926Z,38.88
2022-10-05T07:55:27.352Z,39.97
2022-10-05T07:57:54.450Z,38.17
2022-10-05T08:00:26.016Z,38.92
2022-10-05T08:02:56.345Z,35.50
2022-10-05T08:05:26.460Z,33.38
2022-10-05T08:08:14.324Z,35.55
2022-10-05T08:10:49.166Z,29.65
2022-10-05T08:13:23.033Z,24.52
2022-10-05T08:15:55.520Z,25.40
2022-10-05T08:18:22.721Z,20.52
2022-10-05T08:20:56.754Z,19.33
2022-10-05T08:23:26.559Z,22.52
2022-10-05T08:26:03.087Z,22.42
2022-10-05T08:28:36.547Z,19.42
2022-10-05T08:31:06.823Z,17.15
2022-10-05T08:33:53.209Z,18.30
2022-10-05T08:36:42.076Z,16.10
2022-10-05T08:39:13.593Z,14.93
2022-10-05T08:41:59.204Z,15.23
2022-10-05T08:44:41.494Z,13.45
2022-10-05T08:47:28.028Z,27.30
2022-10-05T08:50:14.342Z,12.98
2022-10-05T08:52:47.517Z,14.95
2022-10-05T08:55:27.416Z,16.88
2022-10-05T08:58:07.205Z,17.38
2022-10-05T09:01:00.664Z,12.55
2022-10-05T09:03:44.079Z,13.48
2022-10-05T09:06:19.649Z,12.20
2022-10-05T09:08:46.736Z,13.38
2022-10-05T09:11:20.438Z,12.65
2022-10-05T09:13:51.542Z,12.07
2022-10-05T09:16:18.743Z,13.85
2022-10-05T09:18:46.020Z,16.08
2022-10-05T09:21:15.872Z,14.65
2022-10-05T09:23:47.818Z,16.25
2022-10-05T09:26:33.918Z,16.52
2022-10-05T09:29:19.292Z,14.52
2022-10-05T09:31:49.619Z,15.25
2022-10-05T09:34:35.616Z,16.23
2022-10-05T09:37:08.748Z,17.35
2022-10-05T09:39:57.850Z,17.48
2022-10-05T09:42:54.599Z,17.83
2022-10-05T09:45:27.845Z,17.02
2022-10-05T09:47:54.946Z,18.25
2022-10-05T09:50:51.976Z,24.48
2022-10-05T09:53:40.765Z,17.10
2022-10-05T09:56:26.276Z,16.20
2022-10-05T09:59:00.011Z,17.38
2022-10-05T10:02:22.178Z,15.15
2022-10-05T10:05:08.002Z,14.52
2022-10-05T10:07:38.173Z,10.63
2022-10-05T10:10:08.419Z,10.35
2022-10-05T10:13:06.838Z,9.55
2022-10-05T10:15:38.288Z,8.85
2022-10-05T10:18:15.133Z,10.07
2022-10-05T10:20:42.255Z,12.13
2022-10-05T10:23:24.634Z,10.38
2022-10-05T10:26:04.126Z,10.20
2022-10-05T10:28:43.270Z,9.65
2022-10-05T10:31:22.514Z,7.50
2022-10-05T10:34:08.088Z,6.75
2022-10-05T10:36:54.189Z,5.82
2022-10-05T10:39:50.828Z,5.03
2022-10-05T10:42:22.592Z,5.43
2022-10-05T10:44:58.963Z,9.05
2022-10-05T10:47:44.254Z,6.60
2022-10-05T10:50:11.351Z,8.15
2022-10-05T10:53:02.855Z,10.07
2022-10-05T10:55:35.871Z,5.50
2022-10-05T10:58:23.663Z,7.35
2022-10-05T11:01:22.049Z,8.23
2022-10-05T11:03:52.125Z,5.40
2022-10-05T11:06:25.065Z,7.80
2022-10-05T11:08:55.290Z,5.80
2022-10-05T11:11:28.560Z,7.38
2022-10-05T11:14:05.666Z,6.45
2022-10-05T11:16:48.701Z,6.85
2022-10-05T11:19:20.450Z,4.97
2022-10-05T11:22:02.989Z,5.32
2022-10-05T11:24:42.598Z,10.68
2022-10-05T11:27:15.873Z,5.32
2022-10-05T11:29:45.881Z,5.32
2022-10-05T11:32:35.224Z,5.40
2022-10-05T11:35:24.522Z,5.38
2022-10-05T11:38:06.608Z,4.25
2022-10-05T11:40:39.624Z,5.88
2022-10-05T11:43:25.140Z,6.07
2022-10-05T11:46:15.347Z,15.27
2022-10-05T11:48:48.424Z,7.10
2022-10-05T11:51:18.306Z,7.55
2022-10-05T11:54:05.184Z,8.48
2022-10-05T11:56:38.222Z,6.82
2022-10-05T11:59:20.856Z,9.30
2022-10-05T12:02:00.271Z,4.20
2022-10-05T12:04:37.354Z,5.25
2022-10-05T12:07:24.041Z,5.10
2022-10-05T12:10:21.188Z,4.53
2022-10-05T12:12:51.808Z,5.05
2022-10-05T12:15:31.911Z,6.20
2022-10-05T12:17:59.018Z,5.00
2022-10-05T12:20:32.725Z,6.93
2022-10-05T12:23:04.208Z,3.92
2022-10-05T12:25:40.305Z,3.88
2022-10-05T12:28:11.572Z,3.20
2022-10-05T12:30:53.946Z,4.32
2022-10-05T12:33:30.149Z,2.88
2022-10-05T12:36:04.357Z,3.45
2022-10-05T12:38:44.190Z,4.20
2022-10-05T12:41:36.466Z,6.00
2022-10-05T12:44:16.023Z,6.63
2022-10-05T12:46:54.996Z,4.30
2022-10-05T12:49:34.413Z,6.25
2022-10-05T12:52:14.577Z,5.85
2022-10-05T12:54:51.479Z,5.10
2022-10-05T12:57:42.762Z,3.05
2022-10-05T13:00:09.913Z,6.13
2022-10-05T13:02:47.797Z,5.00
2022-10-05T13:05:19.222Z,6.40
2022-10-05T13:07:58.516Z,7.43
2022-10-05T13:10:28.000Z,8.00
2022-10-05T13:13:01.083Z,5.00
2022-10-05T13:15:30.565Z,5.35
2022-10-05T13:18:22.965Z,4.22
2022-10-05T13:20:50.083Z,5.82
2022-10-05T13:23:31.412Z,5.95
2022-10-05T13:26:07.850Z,3.90
2022-10-05T13:28:41.443Z,4.07
2022-10-05T13:31:28.818Z,5.50
2022-10-05T13:33:59.042Z,4.32
2022-10-05T13:36:26.191Z,6.30
2022-10-05T13:39:04.211Z,3.17
2022-10-05T13:44:16.584Z,6.30
2022-10-05T13:46:49.495Z,6.22
2022-10-05T13:49:22.038Z,4.53
2022-10-05T13:52:08.743Z,4.60
2022-10-05T13:54:59.753Z,6.55
2022-10-05T13:57:45.119Z,4.22
2022-10-05T14:00:18.775Z,4.68
2022-10-05T14:02:52.586Z,3.30
2022-10-05T14:05:22.155Z,8.10
2022-10-05T14:07:50.974Z,3.35
2022-10-05T14:10:34.125Z,10.48
2022-10-05T14:13:02.139Z,6.50
2022-10-05T14:15:30.871Z,6.82
2022-10-05T14:17:57.997Z,14.00
2022-10-05T14:20:26.980Z,6.32
2022-10-05T14:23:01.762Z,5.07
2022-10-05T14:25:30.059Z,5.18
2022-10-05T14:28:12.718Z,5.82
2022-10-05T14:33:15.266Z,5.80
2022-10-05T14:35:50.233Z,5.47
2022-10-05T14:38:49.802Z,4.22
2022-10-05T14:41:27.660Z,6.40
2022-10-05T14:44:06.803Z,6.60
2022-10-05T14:46:36.447Z,7.13
2022-10-05T14:49:17.206Z,6.43
2022-10-05T14:51:44.490Z,11.70
2022-10-05T14:54:29.313Z,4.95
2022-10-05T14:57:09.996Z,9.70
2022-10-05T14:59:37.359Z,5.40
2022-10-05T15:02:20.020Z,4.78
2022-10-05T15:07:14.119Z,5.85
2022-10-05T15:09:56.566Z,5.65
2022-10-05T15:12:35.085Z,5.78
2022-10-05T15:15:25.587Z,7.15
2022-10-05T15:17:55.978Z,5.30
2022-10-05T16:32:06.362Z,4.65
2022-10-05T16:34:36.437Z,4.68
2022-10-05T16:37:03.528Z,7.53
2022-10-05T16:39:33.385Z,8.45
2022-10-05T16:44:27.462Z,6.00
2022-10-05T16:51:10.200Z,6.53
2022-10-05T16:53:51.754Z,6.63
2022-10-05T17:03:28.580Z,10.15
2022-10-05T17:06:57.456Z,7.15
2022-10-05T17:10:17.645Z,8.15
2022-10-05T17:13:43.792Z,8.32
2022-10-05T17:25:44.573Z,7.45
2022-10-05T17:28:40.825Z,7.40
2022-10-05T17:33:59.797Z,9.90
2022-10-05T17:36:44.126Z,9.70
2022-10-05T17:39:14.425Z,5.18
2022-10-05T17:41:41.486Z,6.60
2022-10-05T17:44:19.522Z,7.00
2022-10-05T17:46:47.817Z,4.10
2022-10-05T17:49:33.461Z,8.13
2022-10-05T17:52:21.236Z,7.55
2022-10-05T17:55:08.585Z,11.32
2022-10-05T17:57:36.858Z,7.57
2022-10-05T18:00:31.437Z,5.28
2022-10-05T18:02:58.647Z,7.47
2022-10-05T18:05:27.790Z,4.22
2022-10-05T18:08:13.215Z,5.05
2022-10-05T18:11:00.317Z,4.40
2022-10-05T18:13:45.421Z,3.53
2022-10-05T18:16:13.609Z,7.20
2022-10-05T18:18:44.210Z,4.20
2022-10-05T18:21:16.624Z,4.65
2022-10-05T18:24:01.284Z,4.38
2022-10-05T18:26:52.395Z,5.30
2022-10-05T18:29:53.438Z,3.42
2022-10-05T18:32:23.311Z,4.07
2022-10-05T18:35:01.978Z,3.95
2022-10-05T18:37:47.242Z,4.00
2022-10-05T18:40:24.002Z,3.70
2022-10-05T18:43:05.656Z,5.68
2022-10-05T18:45:38.684Z,3.13
2022-10-05T18:48:14.956Z,6.72
2022-10-05T18:50:49.213Z,4.22
2022-10-05T18:53:23.211Z,3.78
2022-10-05T18:56:05.657Z,9.30
2022-10-05T18:58:37.131Z,4.75
2022-10-05T19:01:22.808Z,9.98
2022-10-05T19:04:04.636Z,8.60
2022-10-05T19:07:11.512Z,5.30
2022-10-05T19:09:49.389Z,5.30
2022-10-05T19:12:38.098Z,8.20
2022-10-05T19:15:16.602Z,3.85
2022-10-05T19:17:52.751Z,4.97
2022-10-05T19:20:22.944Z,4.68
2022-10-05T19:23:09.391Z,3.30
2022-10-05T19:25:39.094Z,3.85
2022-10-05T19:28:22.370Z,3.40
2022-10-05T19:31:09.274Z,4.75
2022-10-05T19:33:36.447Z,3.78
2022-10-05T19:36:21.796Z,3.10
2022-10-05T19:38:51.714Z,4.43
2022-10-05T19:41:22.580Z,2.80
2022-10-05T19:44:03.543Z,3.92
2022-10-05T19:46:30.800Z,4.65
2022-10-05T19:49:00.086Z,9.82
2022-10-05T19:51:31.756Z,4.97
2022-10-05T19:54:03.051Z,3.40
2022-10-05T19:56:35.053Z,5.97
2022-10-05T19:59:13.193Z,5.45
2022-10-05T20:01:40.627Z,3.88
2022-10-05T20:04:09.403Z,3.30
2022-10-05T20:06:39.299Z,9.45
2022-10-05T20:09:19.931Z,4.75
2022-10-05T20:11:51.400Z,4.93
2022-10-05T20:14:20.059Z,3.47
2022-10-05T20:17:05.848Z,4.22
2022-10-05T20:19:35.730Z,5.20
2022-10-05T20:22:21.251Z,5.68
2022-10-05T20:24:52.143Z,6.55
2022-10-05T20:27:38.051Z,5.03
2022-10-05T20:30:06.075Z,6.97
2022-10-05T20:32:33.141Z,7.60
2022-10-05T20:35:00.480Z,7.88
2022-10-05T20:37:27.602Z,8.13
2022-10-05T20:39:54.747Z,3.90
2022-10-05T20:42:23.893Z,5.35
2022-10-05T20:44:56.499Z,4.70
2022-10-05T20:47:24.159Z,6.03
2022-10-05T20:49:53.307Z,6.15
2022-10-05T20:52:20.453Z,5.85
2022-10-05T20:54:47.944Z,4.32
2022-10-05T20:57:15.078Z,7.32
2022-10-05T20:59:42.188Z,4.78
2022-10-05T21:02:11.369Z,5.47
2022-10-05T21:04:41.476Z,6.03
2022-10-05T21:07:09.003Z,3.38
2022-10-05T21:09:38.268Z,10.27
2022-10-05T21:12:05.560Z,4.78
2022-10-05T21:14:34.466Z,5.72
2022-10-05T21:17:02.101Z,5.15
2022-10-05T21:19:29.509Z,7.97
2022-10-05T21:21:59.561Z,5.13
2022-10-05T21:24:26.740Z,4.75
2022-10-05T21:26:56.703Z,6.40
2022-10-05T21:29:23.822Z,4.30
2022-10-05T21:31:51.154Z,6.45
2022-10-05T21:34:18.358Z,4.80
2022-10-05T21:36:45.475Z,3.92
2022-10-05T21:39:12.561Z,6.25
2022-10-05T21:41:39.636Z,5.75
2022-10-05T21:44:06.966Z,7.18
2022-10-05T21:46:35.825Z,8.25
2022-10-05T21:49:03.066Z,6.78
2022-10-05T21:51:30.193Z,6.88
2022-10-05T21:54:05.404Z,5.15
2022-10-05T21:56:35.962Z,4.43
2022-10-05T21:59:07.207Z,5.55
2022-10-05T22:01:35.907Z,5.60
2022-10-05T22:04:03.756Z,4.40
2022-10-05T22:06:31.107Z,6.93
2022-10-05T22:08:58.729Z,7.47
2022-10-05T22:11:26.269Z,5.40
2022-10-05T22:13:53.884Z,6.40
2022-10-05T22:16:22.293Z,8.70
2022-10-05T22:18:49.602Z,7.28
2022-10-05T22:21:16.970Z,7.00
2022-10-05T22:23:45.950Z,5.35
2022-10-05T22:26:14.112Z,4.97
2022-10-05T22:28:42.625Z,3.92
2022-10-05T22:31:10.235Z,7.30
2022-10-05T22:33:37.373Z,5.35
2022-10-05T22:36:04.996Z,5.22
2022-10-05T22:38:32.185Z,7.97
2022-10-05T22:41:01.329Z,7.15
2022-10-05T22:43:28.924Z,9.48
2022-10-05T22:45:56.363Z,8.15
2022-10-05T22:48:23.783Z,7.50
2022-10-05T22:50:50.791Z,9.07
2022-10-05T22:53:17.892Z,6.32
2022-10-05T22:55:45.112Z,5.50
2022-10-05T22:58:12.271Z,5.70
2022-10-05T23:00:57.692Z,8.88
2022-10-05T23:03:25.808Z,7.55
2022-10-05T23:06:03.638Z,6.85
2022-10-05T23:08:34.272Z,6.13
2022-10-05T23:11:17.390Z,7.60
2022-10-05T23:14:21.753Z,8.48
2022-10-05T23:16:48.993Z,7.18
2022-10-05T23:19:16.182Z,5.90
2022-10-05T23:21:43.509Z,6.35
2022-10-05T23:24:10.734Z,7.30
2022-10-05T23:26:37.840Z,7.50
2022-10-05T23:29:05.015Z,10.50
2022-10-05T23:31:33.406Z,10.43
2022-10-05T23:34:00.506Z,7.18
2022-10-05T23:36:32.124Z,9.13
2022-10-05T23:38:59.959Z,7.07
2022-10-05T23:41:27.058Z,8.93
2022-10-05T23:43:57.008Z,7.45
2022-10-05T23:46:24.133Z,7.35
2022-10-05T23:48:53.233Z,9.13
2022-10-05T23:51:20.401Z,6.30
2022-10-05T23:53:47.541Z,10.10
2022-10-05T23:56:14.699Z,7.35
2022-10-05T23:58:41.889Z,7.60
